sensor_id;sensor_type;location;lat;lon;timestamp;P1;P2;P0
21358;PMS7003;13506;50.852;20.632;2023-12-20T00:00:24;14.50;13.50;7.75
21358;PMS7003;13506;50.852;20.632;2023-12-20T00:03:12;13.75;13.75;7.00
21358;PMS7003;13506;50.852;20.632;2023-12-20T00:05:40;13.50;12.50;6.25
21358;PMS7003;13506;50.852;20.632;2023-12-20T00:08:09;19.75;18.25;11.25
21358;PMS7003;13506;50.852;20.632;2023-12-20T00:10:39;13.75;13.00;7.00
21358;PMS7003;13506;50.852;20.632;2023-12-20T00:13:07;13.50;13.25;8.25
21358;PMS7003;13506;50.852;20.632;2023-12-20T00:15:35;21.40;21.40;16.00
21358;PMS7003;13506;50.852;20.632;2023-12-20T00:18:03;14.50;13.75;7.75
21358;PMS7003;13506;50.852;20.632;2023-12-20T00:20:37;17.50;11.75;6.25
21358;PMS7003;13506;50.852;20.632;2023-12-20T00:23:05;19.20;19.20;13.20
21358;PMS7003;13506;50.852;20.632;2023-12-20T00:25:34;13.00;11.60;8.20
21358;PMS7003;13506;50.852;20.632;2023-12-20T00:28:03;17.40;13.60;9.00
21358;PMS7003;13506;50.852;20.632;2023-12-20T00:30:31;14.50;13.00;8.00
21358;PMS7003;13506;50.852;20.632;2023-12-20T00:33:05;17.00;15.50;8.50
21358;PMS7003;13506;50.852;20.632;2023-12-20T00:35:33;12.75;12.50;7.50
21358;PMS7003;13506;50.852;20.632;2023-12-20T00:38:01;15.50;11.00;5.50
21358;PMS7003;13506;50.852;20.632;2023-12-20T00:40:30;16.50;16.25;10.00
21358;PMS7003;13506;50.852;20.632;2023-12-20T00:42:58;13.00;13.00;7.00
21358;PMS7003;13506;50.852;20.632;2023-12-20T00:45:28;19.25;16.25;9.00
21358;PMS7003;13506;50.852;20.632;2023-12-20T00:47:56;23.20;23.20;16.80
21358;PMS7003;13506;50.852;20.632;2023-12-20T00:50:24;13.00;12.00;7.75
21358;PMS7003;13506;50.852;20.632;2023-12-20T00:52:54;14.00;14.00;8.00
21358;PMS7003;13506;50.852;20.632;2023-12-20T00:55:21;23.40;19.40;13.20
21358;PMS7003;13506;50.852;20.632;2023-12-20T00:57:49;16.00;15.75;8.75
21358;PMS7003;13506;50.852;20.632;2023-12-20T01:00:18;15.25;14.25;8.25
21358;PMS7003;13506;50.852;20.632;2023-12-20T01:02:48;20.00;20.00;14.00
21358;PMS7003;13506;50.852;20.632;2023-12-20T01:05:17;14.60;14.40;8.60
21358;PMS7003;13506;50.852;20.632;2023-12-20T01:07:48;19.80;18.60;11.40
21358;PMS7003;13506;50.852;20.632;2023-12-20T01:10:16;15.60;14.60;9.00
21358;PMS7003;13506;50.852;20.632;2023-12-20T01:12:45;18.20;14.80;9.00
21358;PMS7003;13506;50.852;20.632;2023-12-20T01:15:12;20.40;16.60;10.60
21358;PMS7003;13506;50.852;20.632;2023-12-20T01:17:41;12.75;12.00;7.75
21358;PMS7003;13506;50.852;20.632;2023-12-20T01:20:10;16.50;16.00;7.50
21358;PMS7003;13506;50.852;20.632;2023-12-20T01:22:38;30.00;27.80;21.00
21358;PMS7003;13506;50.852;20.632;2023-12-20T01:25:08;20.00;16.60;9.20
21358;PMS7003;13506;50.852;20.632;2023-12-20T01:27:36;15.75;12.25;7.50
21358;PMS7003;13506;50.852;20.632;2023-12-20T01:30:04;13.60;12.40;6.80
21358;PMS7003;13506;50.852;20.632;2023-12-20T01:32:33;17.20;14.40;8.40
21358;PMS7003;13506;50.852;20.632;2023-12-20T01:35:01;18.60;16.20;10.20
21358;PMS7003;13506;50.852;20.632;2023-12-20T01:37:31;17.60;16.80;7.80
21358;PMS7003;13506;50.852;20.632;2023-12-20T01:39:59;15.50;13.25;6.00
21358;PMS7003;13506;50.852;20.632;2023-12-20T01:42:28;15.40;15.00;8.00
21358;PMS7003;13506;50.852;20.632;2023-12-20T01:44:55;19.80;18.40;11.60
21358;PMS7003;13506;50.852;20.632;2023-12-20T01:47:23;14.80;14.80;8.20
21358;PMS7003;13506;50.852;20.632;2023-12-20T01:49:52;19.60;16.40;9.80
21358;PMS7003;13506;50.852;20.632;2023-12-20T01:52:22;22.40;18.60;12.40
21358;PMS7003;13506;50.852;20.632;2023-12-20T01:54:53;15.80;14.00;8.60
21358;PMS7003;13506;50.852;20.632;2023-12-20T01:57:28;21.25;18.25;9.50
21358;PMS7003;13506;50.852;20.632;2023-12-20T01:59:56;13.75;13.25;8.00
21358;PMS7003;13506;50.852;20.632;2023-12-20T02:02:25;17.00;15.00;8.60
21358;PMS7003;13506;50.852;20.632;2023-12-20T02:04:55;20.40;20.00;14.20
21358;PMS7003;13506;50.852;20.632;2023-12-20T02:07:24;13.50;13.00;7.50
21358;PMS7003;13506;50.852;20.632;2023-12-20T02:09:53;15.25;14.25;8.75
21358;PMS7003;13506;50.852;20.632;2023-12-20T02:12:22;16.20;15.00;9.00
21358;PMS7003;13506;50.852;20.632;2023-12-20T02:14:49;16.00;13.50;7.75
21358;PMS7003;13506;50.852;20.632;2023-12-20T02:17:17;15.50;14.75;8.25
21358;PMS7003;13506;50.852;20.632;2023-12-20T02:19:49;20.50;17.25;10.00
21358;PMS7003;13506;50.852;20.632;2023-12-20T02:22:19;14.25;12.25;7.00
21358;PMS7003;13506;50.852;20.632;2023-12-20T02:24:45;19.20;17.80;14.00
21358;PMS7003;13506;50.852;20.632;2023-12-20T02:27:13;15.60;15.60;9.80
21358;PMS7003;13506;50.852;20.632;2023-12-20T02:29:44;15.50;14.25;8.25
21358;PMS7003;13506;50.852;20.632;2023-12-20T02:32:15;18.20;17.00;9.60
21358;PMS7003;13506;50.852;20.632;2023-12-20T02:34:44;24.60;23.80;16.00
21358;PMS7003;13506;50.852;20.632;2023-12-20T02:37:13;14.75;13.25;7.25
21358;PMS7003;13506;50.852;20.632;2023-12-20T02:39:42;20.50;16.50;9.00
21358;PMS7003;13506;50.852;20.632;2023-12-20T02:42:11;21.40;19.00;10.80
21358;PMS7003;13506;50.852;20.632;2023-12-20T02:44:38;19.00;17.20;8.80
21358;PMS7003;13506;50.852;20.632;2023-12-20T02:47:07;14.80;14.00;8.20
21358;PMS7003;13506;50.852;20.632;2023-12-20T02:49:35;15.60;15.60;11.00
21358;PMS7003;13506;50.852;20.632;2023-12-20T02:52:03;18.80;16.60;10.00
21358;PMS7003;13506;50.852;20.632;2023-12-20T02:54:31;14.50;12.25;8.00
21358;PMS7003;13506;50.852;20.632;2023-12-20T02:57:01;13.00;12.00;8.00
21358;PMS7003;13506;50.852;20.632;2023-12-20T02:59:29;16.00;15.00;8.75
21358;PMS7003;13506;50.852;20.632;2023-12-20T03:01:57;19.00;18.00;11.80
21358;PMS7003;13506;50.852;20.632;2023-12-20T03:04:25;17.00;16.00;8.25
21358;PMS7003;13506;50.852;20.632;2023-12-20T03:06:53;13.00;13.00;9.00
21358;PMS7003;13506;50.852;20.632;2023-12-20T03:09:21;20.40;18.40;12.20
21358;PMS7003;13506;50.852;20.632;2023-12-20T03:11:49;17.50;14.25;8.00
21358;PMS7003;13506;50.852;20.632;2023-12-20T03:14:18;15.80;14.20;7.40
21358;PMS7003;13506;50.852;20.632;2023-12-20T03:16:46;15.00;15.00;8.00
21358;PMS7003;13506;50.852;20.632;2023-12-20T03:19:16;15.25;12.75;6.00
21358;PMS7003;13506;50.852;20.632;2023-12-20T03:21:45;12.50;12.50;8.00
21358;PMS7003;13506;50.852;20.632;2023-12-20T03:24:13;12.80;12.00;6.20
21358;PMS7003;13506;50.852;20.632;2023-12-20T03:26:41;13.75;13.00;8.00
21358;PMS7003;13506;50.852;20.632;2023-12-20T03:29:09;14.20;12.80;6.80
21358;PMS7003;13506;50.852;20.632;2023-12-20T03:31:38;9.60;9.60;5.60
21358;PMS7003;13506;50.852;20.632;2023-12-20T03:34:06;11.60;9.60;5.60
21358;PMS7003;13506;50.852;20.632;2023-12-20T03:36:34;17.80;11.00;6.40
21358;PMS7003;13506;50.852;20.632;2023-12-20T03:39:02;17.00;14.00;8.20
21358;PMS7003;13506;50.852;20.632;2023-12-20T03:41:31;12.80;10.60;5.80
21358;PMS7003;13506;50.852;20.632;2023-12-20T03:43:59;12.80;12.40;6.00
21358;PMS7003;13506;50.852;20.632;2023-12-20T03:46:27;11.80;11.20;6.00
21358;PMS7003;13506;50.852;20.632;2023-12-20T03:48:56;12.25;12.25;5.75
21358;PMS7003;13506;50.852;20.632;2023-12-20T03:51:25;11.50;10.00;5.50
21358;PMS7003;13506;50.852;20.632;2023-12-20T03:53:52;17.20;15.40;7.60
21358;PMS7003;13506;50.852;20.632;2023-12-20T03:56:20;18.00;15.75;9.00
21358;PMS7003;13506;50.852;20.632;2023-12-20T03:58:48;12.20;9.80;7.00
21358;PMS7003;13506;50.852;20.632;2023-12-20T04:01:16;15.40;13.00;8.00
21358;PMS7003;13506;50.852;20.632;2023-12-20T04:03:44;13.00;12.60;8.20
21358;PMS7003;13506;50.852;20.632;2023-12-20T04:06:17;14.40;11.60;6.40
21358;PMS7003;13506;50.852;20.632;2023-12-20T04:08:45;15.00;12.00;7.40
21358;PMS7003;13506;50.852;20.632;2023-12-20T04:11:13;18.00;15.40;9.00
21358;PMS7003;13506;50.852;20.632;2023-12-20T04:13:41;12.75;12.75;5.00
21358;PMS7003;13506;50.852;20.632;2023-12-20T04:16:09;15.80;15.80;11.00
21358;PMS7003;13506;50.852;20.632;2023-12-20T04:18:36;14.00;13.40;7.00
21358;PMS7003;13506;50.852;20.632;2023-12-20T04:21:05;11.75;11.00;6.50
21358;PMS7003;13506;50.852;20.632;2023-12-20T04:23:34;17.00;16.80;10.80
21358;PMS7003;13506;50.852;20.632;2023-12-20T04:26:02;16.80;15.60;9.00
21358;PMS7003;13506;50.852;20.632;2023-12-20T04:28:30;13.25;11.25;5.25
21358;PMS7003;13506;50.852;20.632;2023-12-20T04:30:58;16.00;13.00;8.00
21358;PMS7003;13506;50.852;20.632;2023-12-20T04:33:26;19.60;16.80;9.20
21358;PMS7003;13506;50.852;20.632;2023-12-20T04:35:54;14.80;13.00;9.20
21358;PMS7003;13506;50.852;20.632;2023-12-20T04:38:23;16.80;16.60;9.00
21358;PMS7003;13506;50.852;20.632;2023-12-20T04:40:52;12.60;11.00;7.00
21358;PMS7003;13506;50.852;20.632;2023-12-20T04:43:20;18.20;14.80;8.80
21358;PMS7003;13506;50.852;20.632;2023-12-20T04:45:49;17.00;15.00;7.80
21358;PMS7003;13506;50.852;20.632;2023-12-20T04:48:17;17.40;17.40;8.80
21358;PMS7003;13506;50.852;20.632;2023-12-20T04:50:45;20.80;20.20;12.60
21358;PMS7003;13506;50.852;20.632;2023-12-20T04:53:13;21.20;16.60;8.40
21358;PMS7003;13506;50.852;20.632;2023-12-20T04:55:41;15.80;15.80;8.20
21358;PMS7003;13506;50.852;20.632;2023-12-20T04:58:10;17.40;15.60;9.20
21358;PMS7003;13506;50.852;20.632;2023-12-20T05:00:38;15.80;13.60;8.80
21358;PMS7003;13506;50.852;20.632;2023-12-20T05:03:05;12.20;12.20;6.00
21358;PMS7003;13506;50.852;20.632;2023-12-20T05:05:33;11.40;10.80;7.00
21358;PMS7003;13506;50.852;20.632;2023-12-20T05:08:01;14.00;13.40;7.00
21358;PMS7003;13506;50.852;20.632;2023-12-20T05:10:29;12.40;11.80;6.00
21358;PMS7003;13506;50.852;20.632;2023-12-20T05:12:57;15.60;12.80;6.40
21358;PMS7003;13506;50.852;20.632;2023-12-20T05:15:27;9.20;8.80;6.20
21358;PMS7003;13506;50.852;20.632;2023-12-20T05:17:54;15.20;13.00;6.80
21358;PMS7003;13506;50.852;20.632;2023-12-20T05:20:23;12.80;9.60;5.00
21358;PMS7003;13506;50.852;20.632;2023-12-20T05:22:50;14.80;13.20;8.00
21358;PMS7003;13506;50.852;20.632;2023-12-20T05:25:18;14.00;13.20;8.40
21358;PMS7003;13506;50.852;20.632;2023-12-20T05:27:46;15.20;12.80;7.40
21358;PMS7003;13506;50.852;20.632;2023-12-20T05:30:14;13.00;12.00;6.00
21358;PMS7003;13506;50.852;20.632;2023-12-20T05:32:44;18.00;16.00;10.60
21358;PMS7003;13506;50.852;20.632;2023-12-20T05:35:12;17.40;14.40;7.20
21358;PMS7003;13506;50.852;20.632;2023-12-20T05:37:40;12.00;11.40;7.40
21358;PMS7003;13506;50.852;20.632;2023-12-20T05:40:09;13.60;12.80;6.80
21358;PMS7003;13506;50.852;20.632;2023-12-20T05:42:37;11.40;10.00;5.80
21358;PMS7003;13506;50.852;20.632;2023-12-20T05:45:05;14.40;12.00;5.00
21358;PMS7003;13506;50.852;20.632;2023-12-20T05:47:36;11.20;11.20;6.80
21358;PMS7003;13506;50.852;20.632;2023-12-20T05:50:06;14.20;11.40;6.80
21358;PMS7003;13506;50.852;20.632;2023-12-20T05:52:34;19.40;16.60;9.20
21358;PMS7003;13506;50.852;20.632;2023-12-20T05:55:02;13.60;12.20;7.00
21358;PMS7003;13506;50.852;20.632;2023-12-20T05:57:30;18.20;16.40;8.20
21358;PMS7003;13506;50.852;20.632;2023-12-20T05:59:58;15.40;13.00;8.80
21358;PMS7003;13506;50.852;20.632;2023-12-20T06:02:26;15.20;11.60;6.00
21358;PMS7003;13506;50.852;20.632;2023-12-20T06:04:54;14.40;13.40;7.00
21358;PMS7003;13506;50.852;20.632;2023-12-20T06:07:24;8.40;8.40;4.00
21358;PMS7003;13506;50.852;20.632;2023-12-20T06:09:52;11.25;11.25;5.00
21358;PMS7003;13506;50.852;20.632;2023-12-20T06:12:21;10.00;8.80;5.00
21358;PMS7003;13506;50.852;20.632;2023-12-20T06:14:49;9.40;8.00;4.00
21358;PMS7003;13506;50.852;20.632;2023-12-20T06:17:18;11.25;8.75;4.00
21358;PMS7003;13506;50.852;20.632;2023-12-20T06:19:46;13.80;11.20;8.00
21358;PMS7003;13506;50.852;20.632;2023-12-20T06:22:14;8.80;8.80;4.60
21358;PMS7003;13506;50.852;20.632;2023-12-20T06:24:44;7.80;7.80;4.60
21358;PMS7003;13506;50.852;20.632;2023-12-20T06:27:12;14.60;13.40;9.00
21358;PMS7003;13506;50.852;20.632;2023-12-20T06:29:40;11.80;10.20;5.40
21358;PMS7003;13506;50.852;20.632;2023-12-20T06:32:10;10.60;10.60;5.80
21358;PMS7003;13506;50.852;20.632;2023-12-20T06:34:38;10.60;10.60;5.80
21358;PMS7003;13506;50.852;20.632;2023-12-20T06:37:06;11.75;11.25;5.00
21358;PMS7003;13506;50.852;20.632;2023-12-20T06:39:34;8.00;8.00;4.20
21358;PMS7003;13506;50.852;20.632;2023-12-20T06:42:04;12.00;11.80;5.80
21358;PMS7003;13506;50.852;20.632;2023-12-20T06:44:32;10.60;10.40;5.80
21358;PMS7003;13506;50.852;20.632;2023-12-20T06:47:00;16.40;15.40;8.60
21358;PMS7003;13506;50.852;20.632;2023-12-20T06:49:28;11.40;10.00;5.00
21358;PMS7003;13506;50.852;20.632;2023-12-20T06:51:57;11.25;9.75;5.00
21358;PMS7003;13506;50.852;20.632;2023-12-20T06:54:26;18.40;14.60;9.00
21358;PMS7003;13506;50.852;20.632;2023-12-20T06:56:53;12.40;11.40;5.00
21358;PMS7003;13506;50.852;20.632;2023-12-20T06:59:23;14.20;14.20;8.00
21358;PMS7003;13506;50.852;20.632;2023-12-20T07:01:51;20.00;19.00;12.80
21358;PMS7003;13506;50.852;20.632;2023-12-20T07:04:19;13.80;12.60;6.80
21358;PMS7003;13506;50.852;20.632;2023-12-20T07:06:47;15.00;14.00;8.60
21358;PMS7003;13506;50.852;20.632;2023-12-20T07:09:17;12.60;12.20;7.60
21358;PMS7003;13506;50.852;20.632;2023-12-20T07:11:45;22.20;14.00;8.00
21358;PMS7003;13506;50.852;20.632;2023-12-20T07:14:13;16.80;15.00;8.20
21358;PMS7003;13506;50.852;20.632;2023-12-20T07:16:44;15.00;11.80;6.20
21358;PMS7003;13506;50.852;20.632;2023-12-20T07:19:12;19.80;16.80;8.00
21358;PMS7003;13506;50.852;20.632;2023-12-20T07:21:40;17.00;15.20;9.60
21358;PMS7003;13506;50.852;20.632;2023-12-20T07:24:08;16.20;14.60;7.60
21358;PMS7003;13506;50.852;20.632;2023-12-20T07:26:36;16.60;16.60;10.00
21358;PMS7003;13506;50.852;20.632;2023-12-20T07:29:06;23.80;21.80;13.40
21358;PMS7003;13506;50.852;20.632;2023-12-20T07:31:33;15.60;13.60;7.20
21358;PMS7003;13506;50.852;20.632;2023-12-20T07:34:03;19.80;17.40;10.00
21358;PMS7003;13506;50.852;20.632;2023-12-20T07:36:31;18.20;18.20;13.00
21358;PMS7003;13506;50.852;20.632;2023-12-20T07:38:59;19.00;16.80;9.00
21358;PMS7003;13506;50.852;20.632;2023-12-20T07:41:27;15.80;15.00;9.00
21358;PMS7003;13506;50.852;20.632;2023-12-20T07:43:55;18.00;14.60;8.60
21358;PMS7003;13506;50.852;20.632;2023-12-20T07:46:23;18.80;15.80;8.60
21358;PMS7003;13506;50.852;20.632;2023-12-20T07:48:51;15.00;12.80;6.00
21358;PMS7003;13506;50.852;20.632;2023-12-20T07:51:22;16.20;15.80;10.20
21358;PMS7003;13506;50.852;20.632;2023-12-20T07:53:51;16.20;14.80;8.80
21358;PMS7003;13506;50.852;20.632;2023-12-20T07:56:19;16.40;14.40;7.80
21358;PMS7003;13506;50.852;20.632;2023-12-20T07:58:47;20.20;16.40;7.40
21358;PMS7003;13506;50.852;20.632;2023-12-20T08:01:15;20.20;16.00;7.60
21358;PMS7003;13506;50.852;20.632;2023-12-20T08:03:44;18.60;18.60;13.40
21358;PMS7003;13506;50.852;20.632;2023-12-20T08:06:12;15.40;13.40;8.80
21358;PMS7003;13506;50.852;20.632;2023-12-20T08:08:44;18.00;12.60;6.80
21358;PMS7003;13506;50.852;20.632;2023-12-20T08:11:12;11.60;9.40;4.20
21358;PMS7003;13506;50.852;20.632;2023-12-20T08:13:40;17.20;15.60;8.00
21358;PMS7003;13506;50.852;20.632;2023-12-20T08:16:08;13.20;11.80;6.80
21358;PMS7003;13506;50.852;20.632;2023-12-20T08:18:39;12.20;12.20;7.00
21358;PMS7003;13506;50.852;20.632;2023-12-20T08:21:07;9.75;9.00;4.50
21358;PMS7003;13506;50.852;20.632;2023-12-20T08:23:35;15.20;15.00;10.60
21358;PMS7003;13506;50.852;20.632;2023-12-20T08:26:05;11.75;10.50;5.25
21358;PMS7003;13506;50.852;20.632;2023-12-20T08:28:33;11.80;9.40;4.00
21358;PMS7003;13506;50.852;20.632;2023-12-20T08:31:03;11.80;11.20;5.80
21358;PMS7003;13506;50.852;20.632;2023-12-20T08:33:32;12.00;10.60;5.00
21358;PMS7003;13506;50.852;20.632;2023-12-20T08:35:59;16.50;12.25;6.00
21358;PMS7003;13506;50.852;20.632;2023-12-20T08:38:31;9.20;9.20;5.00
21358;PMS7003;13506;50.852;20.632;2023-12-20T08:40:59;17.50;11.00;5.00
21358;PMS7003;13506;50.852;20.632;2023-12-20T08:43:30;10.75;8.75;4.00
21358;PMS7003;13506;50.852;20.632;2023-12-20T08:45:58;9.00;9.00;4.25
21358;PMS7003;13506;50.852;20.632;2023-12-20T08:48:26;13.00;10.50;5.00
21358;PMS7003;13506;50.852;20.632;2023-12-20T08:50:54;11.00;10.00;4.25
21358;PMS7003;13506;50.852;20.632;2023-12-20T08:53:22;9.25;7.75;4.75
21358;PMS7003;13506;50.852;20.632;2023-12-20T08:55:50;8.50;8.50;4.50
21358;PMS7003;13506;50.852;20.632;2023-12-20T08:58:18;11.60;11.60;8.20
21358;PMS7003;13506;50.852;20.632;2023-12-20T09:00:48;9.00;8.25;4.25
21358;PMS7003;13506;50.852;20.632;2023-12-20T09:03:16;9.00;9.00;4.00
21358;PMS7003;13506;50.852;20.632;2023-12-20T09:05:43;15.25;10.50;7.75
21358;PMS7003;13506;50.852;20.632;2023-12-20T09:08:12;7.50;6.75;4.00
21358;PMS7003;13506;50.852;20.632;2023-12-20T09:10:39;6.50;5.25;1.25
21358;PMS7003;13506;50.852;20.632;2023-12-20T09:13:08;6.60;5.80;2.80
21358;PMS7003;13506;50.852;20.632;2023-12-20T09:15:35;5.00;5.00;2.00
21358;PMS7003;13506;50.852;20.632;2023-12-20T09:18:05;5.75;4.25;2.75
21358;PMS7003;13506;50.852;20.632;2023-12-20T09:20:34;5.50;5.50;2.50
21358;PMS7003;13506;50.852;20.632;2023-12-20T09:23:03;9.50;8.00;4.00
21358;PMS7003;13506;50.852;20.632;2023-12-20T09:25:31;7.75;7.75;4.00
21358;PMS7003;13506;50.852;20.632;2023-12-20T09:27:59;6.75;6.75;3.00
21358;PMS7003;13506;50.852;20.632;2023-12-20T09:30:26;6.80;6.80;3.60
21358;PMS7003;13506;50.852;20.632;2023-12-20T09:32:55;10.75;10.75;8.00
21358;PMS7003;13506;50.852;20.632;2023-12-20T09:35:25;6.40;5.80;3.20
21358;PMS7003;13506;50.852;20.632;2023-12-20T09:37:53;6.25;6.25;2.50
21358;PMS7003;13506;50.852;20.632;2023-12-20T09:40:21;5.50;5.50;1.75
21358;PMS7003;13506;50.852;20.632;2023-12-20T09:42:55;5.50;5.50;1.75
21358;PMS7003;13506;50.852;20.632;2023-12-20T09:45:24;8.75;8.00;4.50
21358;PMS7003;13506;50.852;20.632;2023-12-20T09:47:53;7.50;6.00;1.25
21358;PMS7003;13506;50.852;20.632;2023-12-20T09:50:22;4.75;4.75;1.50
21358;PMS7003;13506;50.852;20.632;2023-12-20T09:52:52;7.50;7.50;3.00
21358;PMS7003;13506;50.852;20.632;2023-12-20T09:55:21;5.75;4.00;1.00
21358;PMS7003;13506;50.852;20.632;2023-12-20T09:57:51;5.25;5.25;2.00
21358;PMS7003;13506;50.852;20.632;2023-12-20T10:00:20;12.80;11.20;8.20
21358;PMS7003;13506;50.852;20.632;2023-12-20T10:02:49;6.00;5.00;2.00
21358;PMS7003;13506;50.852;20.632;2023-12-20T10:05:26;5.25;5.25;2.50
21358;PMS7003;13506;50.852;20.632;2023-12-20T10:07:55;4.75;4.00;1.75
21358;PMS7003;13506;50.852;20.632;2023-12-20T10:10:23;6.75;5.00;2.00
21358;PMS7003;13506;50.852;20.632;2023-12-20T10:13:01;12.80;11.40;6.20
21358;PMS7003;13506;50.852;20.632;2023-12-20T10:15:31;4.00;4.00;1.00
21358;PMS7003;13506;50.852;20.632;2023-12-20T10:18:00;7.50;5.75;2.50
21358;PMS7003;13506;50.852;20.632;2023-12-20T10:20:30;4.00;4.00;1.00
21358;PMS7003;13506;50.852;20.632;2023-12-20T10:22:58;4.00;4.00;1.00
21358;PMS7003;13506;50.852;20.632;2023-12-20T10:25:27;8.60;8.00;6.80
21358;PMS7003;13506;50.852;20.632;2023-12-20T10:28:10;6.75;6.75;2.50
21358;PMS7003;13506;50.852;20.632;2023-12-20T10:30:39;9.50;9.50;6.50
21358;PMS7003;13506;50.852;20.632;2023-12-20T10:33:08;6.75;4.50;2.50
21358;PMS7003;13506;50.852;20.632;2023-12-20T10:35:37;8.25;7.50;4.00
21358;PMS7003;13506;50.852;20.632;2023-12-20T10:38:07;7.80;4.20;1.40
21358;PMS7003;13506;50.852;20.632;2023-12-20T10:40:36;4.00;4.00;1.00
21358;PMS7003;13506;50.852;20.632;2023-12-20T10:43:05;5.50;4.25;1.00
21358;PMS7003;13506;50.852;20.632;2023-12-20T10:45:35;5.00;5.00;1.00
21358;PMS7003;13506;50.852;20.632;2023-12-20T10:48:03;5.00;5.00;1.50
21358;PMS7003;13506;50.852;20.632;2023-12-20T10:50:31;8.00;8.00;5.00
21358;PMS7003;13506;50.852;20.632;2023-12-20T10:53:05;5.00;4.00;1.00
21358;PMS7003;13506;50.852;20.632;2023-12-20T10:55:34;5.75;5.00;1.00
21358;PMS7003;13506;50.852;20.632;2023-12-20T10:58:06;14.00;14.00;9.75
21358;PMS7003;13506;50.852;20.632;2023-12-20T11:00:35;8.25;8.00;4.00
21358;PMS7003;13506;50.852;20.632;2023-12-20T11:03:08;8.50;7.75;3.25
21358;PMS7003;13506;50.852;20.632;2023-12-20T11:05:38;7.00;4.75;2.00
21358;PMS7003;13506;50.852;20.632;2023-12-20T11:08:16;10.25;8.00;4.00
21358;PMS7003;13506;50.852;20.632;2023-12-20T11:10:49;6.75;6.00;4.00
21358;PMS7003;13506;50.852;20.632;2023-12-20T11:13:26;7.75;7.00;3.00
21358;PMS7003;13506;50.852;20.632;2023-12-20T11:15:57;4.50;4.50;1.00
21358;PMS7003;13506;50.852;20.632;2023-12-20T11:18:29;4.75;4.50;1.25
21358;PMS7003;13506;50.852;20.632;2023-12-20T11:21:00;9.75;9.75;6.50
21358;PMS7003;13506;50.852;20.632;2023-12-20T11:23:31;6.00;4.75;2.00
21358;PMS7003;13506;50.852;20.632;2023-12-20T11:25:59;6.50;4.00;1.00
21358;PMS7003;13506;50.852;20.632;2023-12-20T11:28:29;5.00;5.00;2.00
21358;PMS7003;13506;50.852;20.632;2023-12-20T11:30:58;6.50;6.50;2.00
21358;PMS7003;13506;50.852;20.632;2023-12-20T11:33:30;4.00;4.00;1.00
21358;PMS7003;13506;50.852;20.632;2023-12-20T11:36:02;3.50;3.50;1.00
21358;PMS7003;13506;50.852;20.632;2023-12-20T11:38:43;4.50;4.00;1.25
21358;PMS7003;13506;50.852;20.632;2023-12-20T11:41:21;4.00;4.00;1.00
21358;PMS7003;13506;50.852;20.632;2023-12-20T11:43:52;7.25;5.50;2.00
21358;PMS7003;13506;50.852;20.632;2023-12-20T11:46:23;5.00;4.00;1.00
21358;PMS7003;13506;50.852;20.632;2023-12-20T11:48:52;7.50;6.75;2.00
21358;PMS7003;13506;50.852;20.632;2023-12-20T11:51:20;9.50;7.75;5.25
21358;PMS7003;13506;50.852;20.632;2023-12-20T11:53:52;4.00;4.00;1.00
21358;PMS7003;13506;50.852;20.632;2023-12-20T11:56:22;5.00;5.00;2.00
21358;PMS7003;13506;50.852;20.632;2023-12-20T11:58:50;8.00;8.00;5.25
21358;PMS7003;13506;50.852;20.632;2023-12-20T12:01:19;3.00;3.00;1.00
21358;PMS7003;13506;50.852;20.632;2023-12-20T12:03:47;5.00;4.75;1.00
21358;PMS7003;13506;50.852;20.632;2023-12-20T12:06:15;10.75;10.75;7.50
21358;PMS7003;13506;50.852;20.632;2023-12-20T12:08:43;5.25;5.00;2.00
21358;PMS7003;13506;50.852;20.632;2023-12-20T12:11:12;7.00;7.00;4.00
21358;PMS7003;13506;50.852;20.632;2023-12-20T12:13:41;4.00;4.00;1.00
21358;PMS7003;13506;50.852;20.632;2023-12-20T12:16:09;4.00;4.00;1.00
21358;PMS7003;13506;50.852;20.632;2023-12-20T12:18:39;4.00;4.00;0.75
21358;PMS7003;13506;50.852;20.632;2023-12-20T12:21:07;5.00;3.00;1.00
21358;PMS7003;13506;50.852;20.632;2023-12-20T12:23:35;2.50;2.50;1.00
21358;PMS7003;13506;50.852;20.632;2023-12-20T12:26:03;11.00;11.00;8.00
21358;PMS7003;13506;50.852;20.632;2023-12-20T12:28:34;4.00;4.00;0.25
21358;PMS7003;13506;50.852;20.632;2023-12-20T12:31:02;4.75;4.00;1.00
21358;PMS7003;13506;50.852;20.632;2023-12-20T12:33:31;5.00;5.00;2.00
21358;PMS7003;13506;50.852;20.632;2023-12-20T12:35:59;4.00;4.00;1.00
21358;PMS7003;13506;50.852;20.632;2023-12-20T12:38:30;4.00;4.00;1.00
21358;PMS7003;13506;50.852;20.632;2023-12-20T12:40:59;2.50;2.50;0.50
21358;PMS7003;13506;50.852;20.632;2023-12-20T12:43:28;4.25;4.25;1.25
21358;PMS7003;13506;50.852;20.632;2023-12-20T12:45:57;12.75;12.75;8.00
21358;PMS7003;13506;50.852;20.632;2023-12-20T12:48:25;5.00;4.00;1.00
21358;PMS7003;13506;50.852;20.632;2023-12-20T12:50:54;4.00;4.00;1.00
21358;PMS7003;13506;50.852;20.632;2023-12-20T12:53:25;5.50;5.00;2.00
21358;PMS7003;13506;50.852;20.632;2023-12-20T12:55:53;5.00;5.00;2.50
21358;PMS7003;13506;50.852;20.632;2023-12-20T12:58:21;7.00;5.00;1.00
21358;PMS7003;13506;50.852;20.632;2023-12-20T13:00:50;12.00;11.00;8.00
21358;PMS7003;13506;50.852;20.632;2023-12-20T13:03:20;7.50;5.25;2.50
21358;PMS7003;13506;50.852;20.632;2023-12-20T13:05:49;8.50;8.00;4.00
21358;PMS7003;13506;50.852;20.632;2023-12-20T13:08:17;7.20;5.00;2.00
21358;PMS7003;13506;50.852;20.632;2023-12-20T13:10:45;9.00;9.00;4.50
21358;PMS7003;13506;50.852;20.632;2023-12-20T13:13:14;10.75;9.75;4.75
21358;PMS7003;13506;50.852;20.632;2023-12-20T13:15:43;5.00;5.00;0.75
21358;PMS7003;13506;50.852;20.632;2023-12-20T13:18:16;4.25;4.25;1.00
21358;PMS7003;13506;50.852;20.632;2023-12-20T13:20:46;12.00;12.00;8.00
21358;PMS7003;13506;50.852;20.632;2023-12-20T13:23:14;6.25;5.00;2.00
21358;PMS7003;13506;50.852;20.632;2023-12-20T13:25:43;4.25;4.25;1.50
21358;PMS7003;13506;50.852;20.632;2023-12-20T13:28:12;5.40;5.40;2.00
21358;PMS7003;13506;50.852;20.632;2023-12-20T13:30:40;4.75;4.75;1.25
21358;PMS7003;13506;50.852;20.632;2023-12-20T13:33:09;5.25;5.25;2.00
21358;PMS7003;13506;50.852;20.632;2023-12-20T13:35:38;4.25;4.25;1.00
21358;PMS7003;13506;50.852;20.632;2023-12-20T13:38:08;4.50;4.50;2.00
21358;PMS7003;13506;50.852;20.632;2023-12-20T13:40:36;7.75;5.50;2.00
21358;PMS7003;13506;50.852;20.632;2023-12-20T13:43:04;4.25;4.25;1.00
21358;PMS7003;13506;50.852;20.632;2023-12-20T13:45:32;6.00;4.75;2.00
21358;PMS7003;13506;50.852;20.632;2023-12-20T13:48:00;14.80;13.80;9.80
21358;PMS7003;13506;50.852;20.632;2023-12-20T13:50:30;5.00;5.00;2.00
21358;PMS7003;13506;50.852;20.632;2023-12-20T13:52:58;4.00;4.00;1.00
21358;PMS7003;13506;50.852;20.632;2023-12-20T13:55:27;8.00;8.00;4.50
21358;PMS7003;13506;50.852;20.632;2023-12-20T13:57:56;6.50;4.75;1.50
21358;PMS7003;13506;50.852;20.632;2023-12-20T14:00:24;5.00;5.00;2.00
21358;PMS7003;13506;50.852;20.632;2023-12-20T14:02:53;4.50;4.50;1.25